sensor_id;sensor_type;location;lat;lon;timestamp;pressure;altitude;pressure_sealevel;temperature;humidity
54172;BME280;40076;52.354;4.970;2023-01-16T00:01:50;99558.03;;;5.31;100.00
54172;BME280;40076;52.354;4.970;2023-01-16T00:04:16;99551.91;;;5.30;100.00
54172;BME280;40076;52.354;4.970;2023-01-16T00:06:41;99535.03;;;5.30;100.00
54172;BME280;40076;52.354;4.970;2023-01-16T00:09:07;99530.47;;;5.30;100.00
54172;BME280;40076;52.354;4.970;2023-01-16T00:11:32;99519.44;;;5.32;100.00
54172;BME280;40076;52.354;4.970;2023-01-16T00:13:58;99510.94;;;5.30;100.00
54172;BME280;40076;52.354;4.970;2023-01-16T00:16:24;99513.59;;;5.30;100.00
54172;BME280;40076;52.354;4.970;2023-01-16T00:18:50;99512.81;;;5.29;100.00
54172;BME280;40076;52.354;4.970;2023-01-16T00:21:15;99509.34;;;5.29;100.00
54172;BME280;40076;52.354;4.970;2023-01-16T00:23:41;99501.31;;;5.29;100.00
54172;BME280;40076;52.354;4.970;2023-01-16T00:26:07;99505.88;;;5.28;100.00
54172;BME280;40076;52.354;4.970;2023-01-16T00:28:33;99489.38;;;5.26;100.00
54172;BME280;40076;52.354;4.970;2023-01-16T00:30:58;99480.53;;;5.26;100.00
54172;BME280;40076;52.354;4.970;2023-01-16T00:33:23;99474.41;;;5.25;100.00
54172;BME280;40076;52.354;4.970;2023-01-16T00:35:51;99476.59;;;5.23;100.00
54172;BME280;40076;52.354;4.970;2023-01-16T00:38:16;99472.66;;;5.21;100.00
54172;BME280;40076;52.354;4.970;2023-01-16T00:40:41;99459.25;;;5.21;100.00
54172;BME280;40076;52.354;4.970;2023-01-16T00:43:07;99457.69;;;5.20;100.00
54172;BME280;40076;52.354;4.970;2023-01-16T00:45:32;99454.22;;;5.19;100.00
54172;BME280;40076;52.354;4.970;2023-01-16T00:47:58;99443.06;;;5.17;100.00
54172;BME280;40076;52.354;4.970;2023-01-16T00:50:24;99438.78;;;5.16;100.00
54172;BME280;40076;52.354;4.970;2023-01-16T00:52:49;99428.41;;;5.15;100.00
54172;BME280;40076;52.354;4.970;2023-01-16T00:55:14;99432.16;;;5.14;100.00
54172;BME280;40076;52.354;4.970;2023-01-16T00:57:40;99435.94;;;5.13;100.00
54172;BME280;40076;52.354;4.970;2023-01-16T01:00:06;99419.09;;;5.12;100.00
54172;BME280;40076;52.354;4.970;2023-01-16T01:02:31;99416.41;;;5.12;100.00
54172;BME280;40076;52.354;4.970;2023-01-16T01:04:56;99407.59;;;5.12;100.00
54172;BME280;40076;52.354;4.970;2023-01-16T01:07:22;99408.72;;;5.11;100.00
54172;BME280;40076;52.354;4.970;2023-01-16T01:09:47;99400.69;;;5.11;100.00
54172;BME280;40076;52.354;4.970;2023-01-16T01:12:12;99394.22;;;5.12;100.00
54172;BME280;40076;52.354;4.970;2023-01-16T01:14:37;99398.78;;;5.11;100.00
54172;BME280;40076;52.354;4.970;2023-01-16T01:17:03;99389.34;;;5.05;100.00
54172;BME280;40076;52.354;4.970;2023-01-16T01:19:28;99387.75;;;5.04;100.00
54172;BME280;40076;52.354;4.970;2023-01-16T01:21:53;99392.97;;;5.00;100.00
54172;BME280;40076;52.354;4.970;2023-01-16T01:24:19;99378.31;;;4.98;100.00
54172;BME280;40076;52.354;4.970;2023-01-16T01:26:44;99377.09;;;4.95;100.00
54172;BME280;40076;52.354;4.970;2023-01-16T01:29:09;99370.94;;;4.95;100.00
54172;BME280;40076;52.354;4.970;2023-01-16T01:31:35;99376.44;;;4.90;100.00
54172;BME280;40076;52.354;4.970;2023-01-16T01:34:01;99360.25;;;4.86;100.00
54172;BME280;40076;52.354;4.970;2023-01-16T01:36:26;99358.19;;;4.83;100.00
54172;BME280;40076;52.354;4.970;2023-01-16T01:38:51;99350.03;;;4.80;100.00
54172;BME280;40076;52.354;4.970;2023-01-16T01:41:18;99331.59;;;4.78;100.00
54172;BME280;40076;52.354;4.970;2023-01-16T01:43:52;99332.38;;;4.79;100.00
54172;BME280;40076;52.354;4.970;2023-01-16T01:46:22;99330.81;;;4.78;100.00
54172;BME280;40076;52.354;4.970;2023-01-16T01:48:51;99321.81;;;4.74;100.00
54172;BME280;40076;52.354;4.970;2023-01-16T01:51:30;99324.06;;;4.72;100.00
54172;BME280;40076;52.354;4.970;2023-01-16T01:56:34;99319.63;;;4.67;100.00
54172;BME280;40076;52.354;4.970;2023-01-16T01:59:11;99316.97;;;4.67;100.00
54172;BME280;40076;52.354;4.970;2023-01-16T02:01:38;99318.84;;;4.66;100.00
54172;BME280;40076;52.354;4.970;2023-01-16T02:04:10;99314.59;;;4.65;100.00
54172;BME280;40076;52.354;4.970;2023-01-16T02:06:43;99307.69;;;4.64;100.00
54172;BME280;40076;52.354;4.970;2023-01-16T02:09:09;99294.31;;;4.64;100.00
54172;BME280;40076;52.354;4.970;2023-01-16T02:11:48;99294.31;;;4.64;100.00
54172;BME280;40076;52.354;4.970;2023-01-16T02:14:16;99288.19;;;4.64;100.00
54172;BME280;40076;52.354;4.970;2023-01-16T02:16:42;99279.66;;;4.62;100.00
54172;BME280;40076;52.354;4.970;2023-01-16T02:28:03;99260.47;;;4.60;100.00
54172;BME280;40076;52.354;4.970;2023-01-16T02:31:03;99259.69;;;4.59;100.00
54172;BME280;40076;52.354;4.970;2023-01-16T02:33:39;99258.09;;;4.58;100.00
54172;BME280;40076;52.354;4.970;2023-01-16T02:36:10;99257.66;;;4.56;100.00
54172;BME280;40076;52.354;4.970;2023-01-16T02:39:07;99244.91;;;4.53;100.00
54172;BME280;40076;52.354;4.970;2023-01-16T02:44:40;99246.47;;;4.54;100.00
54172;BME280;40076;52.354;4.970;2023-01-16T02:47:20;99256.69;;;4.52;100.00
54172;BME280;40076;52.354;4.970;2023-01-16T02:50:09;99255.91;;;4.52;100.00
54172;BME280;40076;52.354;4.970;2023-01-16T02:52:56;99243.31;;;4.52;100.00
54172;BME280;40076;52.354;4.970;2023-01-16T02:57:58;99239.56;;;4.53;100.00
54172;BME280;40076;52.354;4.970;2023-01-16T03:00:24;99226.34;;;4.57;100.00
54172;BME280;40076;52.354;4.970;2023-01-16T03:02:50;99223.19;;;4.55;100.00
54172;BME280;40076;52.354;4.970;2023-01-16T03:05:15;99220.53;;;4.55;100.00
54172;BME280;40076;52.354;4.970;2023-01-16T03:08:17;99219.72;;;4.54;100.00
54172;BME280;40076;52.354;4.970;2023-01-16T03:10:48;99209.03;;;4.54;100.00
54172;BME280;40076;52.354;4.970;2023-01-16T03:13:36;99201.00;;;4.54;100.00
54172;BME280;40076;52.354;4.970;2023-01-16T03:16:41;99189.84;;;4.52;100.00
54172;BME280;40076;52.354;4.970;2023-01-16T03:19:27;99184.34;;;4.49;100.00
54172;BME280;40076;52.354;4.970;2023-01-16T03:24:57;99162.16;;;4.48;100.00
54172;BME280;40076;52.354;4.970;2023-01-16T03:32:54;99129.75;;;4.50;100.00
54172;BME280;40076;52.354;4.970;2023-01-16T03:35:29;99132.09;;;4.51;100.00
54172;BME280;40076;52.354;4.970;2023-01-16T03:37:58;99121.72;;;4.50;100.00
54172;BME280;40076;52.354;4.970;2023-01-16T03:40:29;99108.81;;;4.52;100.00
54172;BME280;40076;52.354;4.970;2023-01-16T03:43:00;99114.16;;;4.52;100.00
54172;BME280;40076;52.354;4.970;2023-01-16T03:45:45;99110.38;;;4.53;100.00
54172;BME280;40076;52.354;4.970;2023-01-16T03:48:22;99114.94;;;4.52;100.00
54172;BME280;40076;52.354;4.970;2023-01-16T03:50:55;99109.47;;;4.49;100.00
54172;BME280;40076;52.354;4.970;2023-01-16T03:53:27;99104.91;;;4.49;100.00
54172;BME280;40076;52.354;4.970;2023-01-16T03:56:01;99095.63;;;4.47;100.00
54172;BME280;40076;52.354;4.970;2023-01-16T03:58:34;99084.13;;;4.46;100.00
54172;BME280;40076;52.354;4.970;2023-01-16T04:01:24;99083.34;;;4.46;100.00
54172;BME280;40076;52.354;4.970;2023-01-16T04:04:01;99073.75;;;4.45;100.00
54172;BME280;40076;52.354;4.970;2023-01-16T04:06:35;99059.16;;;4.42;100.00
54172;BME280;40076;52.354;4.970;2023-01-16T04:09:07;99046.53;;;4.43;100.00
54172;BME280;40076;52.354;4.970;2023-01-16T04:11:36;99047.66;;;4.42;100.00
54172;BME280;40076;52.354;4.970;2023-01-16T04:14:04;99041.53;;;4.41;100.00
54172;BME280;40076;52.354;4.970;2023-01-16T04:16:32;99032.72;;;4.41;100.00
54172;BME280;40076;52.354;4.970;2023-01-16T04:18:59;99033.50;;;4.41;100.00
54172;BME280;40076;52.354;4.970;2023-01-16T04:21:27;99026.59;;;4.40;100.00
54172;BME280;40076;52.354;4.970;2023-01-16T04:23:55;99019.34;;;4.41;100.00
54172;BME280;40076;52.354;4.970;2023-01-16T04:26:22;99011.78;;;4.43;100.00
54172;BME280;40076;52.354;4.970;2023-01-16T04:28:47;99008.66;;;4.41;100.00
54172;BME280;40076;52.354;4.970;2023-01-16T04:31:18;99005.97;;;4.41;100.00
54172;BME280;40076;52.354;4.970;2023-01-16T04:33:43;98994.50;;;4.40;100.00
54172;BME280;40076;52.354;4.970;2023-01-16T04:36:09;98982.69;;;4.41;100.00
54172;BME280;40076;52.354;4.970;2023-01-16T04:38:34;98979.25;;;4.41;100.00
54172;BME280;40076;52.354;4.970;2023-01-16T04:40:59;98965.56;;;4.42;100.00
54172;BME280;40076;52.354;4.970;2023-01-16T04:43:24;98953.72;;;4.43;100.00
54172;BME280;40076;52.354;4.970;2023-01-16T04:45:50;98951.06;;;4.43;100.00
54172;BME280;40076;52.354;4.970;2023-01-16T04:48:16;98942.25;;;4.43;100.00
54172;BME280;40076;52.354;4.970;2023-01-16T04:50:42;98935.78;;;4.44;100.00
54172;BME280;40076;52.354;4.970;2023-01-16T04:53:07;98925.88;;;4.44;100.00
54172;BME280;40076;52.354;4.970;2023-01-16T04:55:32;98914.06;;;4.45;100.00
54172;BME280;40076;52.354;4.970;2023-01-16T04:57:57;98899.13;;;4.44;100.00
54172;BME280;40076;52.354;4.970;2023-01-16T05:00:23;98896.47;;;4.44;100.00
54172;BME280;40076;52.354;4.970;2023-01-16T05:02:48;98886.09;;;4.43;100.00
54172;BME280;40076;52.354;4.970;2023-01-16T05:05:13;98886.88;;;4.43;100.00
54172;BME280;40076;52.354;4.970;2023-01-16T05:07:39;98876.97;;;4.44;100.00
54172;BME280;40076;52.354;4.970;2023-01-16T05:10:04;98871.50;;;4.40;100.00
54172;BME280;40076;52.354;4.970;2023-01-16T05:12:30;98867.72;;;4.41;100.00
54172;BME280;40076;52.354;4.970;2023-01-16T05:14:55;98867.25;;;4.39;100.00
54172;BME280;40076;52.354;4.970;2023-01-16T05:17:20;98854.50;;;4.36;100.00
54172;BME280;40076;52.354;4.970;2023-01-16T05:19:49;98846.84;;;4.35;100.00
54172;BME280;40076;52.354;4.970;2023-01-16T05:22:14;98843.03;;;4.36;100.00
54172;BME280;40076;52.354;4.970;2023-01-16T05:24:40;98825.78;;;4.33;100.00
54172;BME280;40076;52.354;4.970;2023-01-16T05:27:05;98819.66;;;4.33;100.00
54172;BME280;40076;52.354;4.970;2023-01-16T05:29:30;98813.50;;;4.32;100.00
54172;BME280;40076;52.354;4.970;2023-01-16T05:31:56;98811.63;;;4.33;100.00
54172;BME280;40076;52.354;4.970;2023-01-16T05:34:21;98802.03;;;4.32;100.00
54172;BME280;40076;52.354;4.970;2023-01-16T05:36:46;98798.09;;;4.29;100.00
54172;BME280;40076;52.354;4.970;2023-01-16T05:39:11;98786.63;;;4.28;100.00
54172;BME280;40076;52.354;4.970;2023-01-16T05:41:37;98775.94;;;4.28;100.00
54172;BME280;40076;52.354;4.970;2023-01-16T05:44:02;98777.41;;;4.26;100.00
54172;BME280;40076;52.354;4.970;2023-01-16T05:46:27;98764.03;;;4.26;100.00
54172;BME280;40076;52.354;4.970;2023-01-16T05:48:53;98763.66;;;4.27;100.00
54172;BME280;40076;52.354;4.970;2023-01-16T05:51:18;98745.31;;;4.26;100.00
54172;BME280;40076;52.354;4.970;2023-01-16T05:53:43;98733.50;;;4.27;100.00
54172;BME280;40076;52.354;4.970;2023-01-16T05:56:10;98726.25;;;4.27;100.00
54172;BME280;40076;52.354;4.970;2023-01-16T05:58:36;98718.22;;;4.27;100.00
54172;BME280;40076;52.354;4.970;2023-01-16T06:01:02;98706.78;;;4.27;100.00
54172;BME280;40076;52.354;4.970;2023-01-16T06:03:27;98713.66;;;4.28;100.00
54172;BME280;40076;52.354;4.970;2023-01-16T06:05:52;98701.88;;;4.29;100.00
54172;BME280;40076;52.354;4.970;2023-01-16T06:08:18;98692.75;;;4.30;100.00
54172;BME280;40076;52.354;4.970;2023-01-16T06:10:43;98690.06;;;4.30;100.00
54172;BME280;40076;52.354;4.970;2023-01-16T06:13:10;98679.69;;;4.28;100.00
54172;BME280;40076;52.354;4.970;2023-01-16T06:15:36;98668.22;;;4.28;100.00
54172;BME280;40076;52.354;4.970;2023-01-16T06:18:01;98670.88;;;4.28;100.00
54172;BME280;40076;52.354;4.970;2023-01-16T06:20:26;98670.88;;;4.28;100.00
54172;BME280;40076;52.354;4.970;2023-01-16T06:22:52;98664.13;;;4.31;100.00
54172;BME280;40076;52.354;4.970;2023-01-16T06:25:17;98654.53;;;4.30;100.00
54172;BME280;40076;52.354;4.970;2023-01-16T06:27:47;98642.72;;;4.31;100.00
54172;BME280;40076;52.354;4.970;2023-01-16T06:30:12;98635.50;;;4.31;100.00
54172;BME280;40076;52.354;4.970;2023-01-16T06:32:38;98638.63;;;4.33;100.00
54172;BME280;40076;52.354;4.970;2023-01-16T06:35:03;98635.16;;;4.33;100.00
54172;BME280;40076;52.354;4.970;2023-01-16T06:37:29;98629.03;;;4.32;100.00
54172;BME280;40076;52.354;4.970;2023-01-16T06:39:54;98629.13;;;4.36;100.00
54172;BME280;40076;52.354;4.970;2023-01-16T06:42:21;98625.69;;;4.35;100.00
54172;BME280;40076;52.354;4.970;2023-01-16T06:44:47;98610.88;;;4.38;100.00
54172;BME280;40076;52.354;4.970;2023-01-16T06:47:12;98626.13;;;4.37;100.00
54172;BME280;40076;52.354;4.970;2023-01-16T06:49:37;98613.69;;;4.41;100.00
54172;BME280;40076;52.354;4.970;2023-01-16T06:52:03;98611.78;;;4.42;100.00
54172;BME280;40076;52.354;4.970;2023-01-16T06:54:28;98614.91;;;4.44;100.00
54172;BME280;40076;52.354;4.970;2023-01-16T06:56:53;98610.34;;;4.44;100.00
54172;BME280;40076;52.354;4.970;2023-01-16T06:59:19;98604.56;;;4.42;100.00
54172;BME280;40076;52.354;4.970;2023-01-16T07:01:44;98594.28;;;4.44;100.00
54172;BME280;40076;52.354;4.970;2023-01-16T07:04:09;98590.50;;;4.45;100.00
54172;BME280;40076;52.354;4.970;2023-01-16T07:06:35;98587.06;;;4.45;100.00
54172;BME280;40076;52.354;4.970;2023-01-16T07:09:01;98580.59;;;4.46;100.00
54172;BME280;40076;52.354;4.970;2023-01-16T07:11:26;98572.56;;;4.46;100.00
54172;BME280;40076;52.354;4.970;2023-01-16T07:13:52;98561.88;;;4.46;100.00
54172;BME280;40076;52.354;4.970;2023-01-16T07:16:37;98548.19;;;4.47;100.00
54172;BME280;40076;52.354;4.970;2023-01-16T07:19:21;98541.91;;;4.43;100.00
54172;BME280;40076;52.354;4.970;2023-01-16T07:22:05;98537.81;;;4.46;100.00
54172;BME280;40076;52.354;4.970;2023-01-16T07:24:49;98530.56;;;4.46;100.00
54172;BME280;40076;52.354;4.970;2023-01-16T07:27:14;98529.47;;;4.47;100.00
54172;BME280;40076;52.354;4.970;2023-01-16T07:29:40;98519.53;;;4.48;100.00
54172;BME280;40076;52.354;4.970;2023-01-16T07:32:06;98516.09;;;4.47;100.00
54172;BME280;40076;52.354;4.970;2023-01-16T07:34:31;98504.28;;;4.48;100.00
54172;BME280;40076;52.354;4.970;2023-01-16T07:36:57;98490.91;;;4.48;100.00
54172;BME280;40076;52.354;4.970;2023-01-16T07:39:22;98490.59;;;4.50;100.00
54172;BME280;40076;52.354;4.970;2023-01-16T07:41:47;98482.09;;;4.48;100.00
54172;BME280;40076;52.354;4.970;2023-01-16T07:44:15;98476.44;;;4.49;100.00
54172;BME280;40076;52.354;4.970;2023-01-16T07:46:40;98469.59;;;4.52;100.00
54172;BME280;40076;52.354;4.970;2023-01-16T07:49:05;98468.81;;;4.51;100.00
54172;BME280;40076;52.354;4.970;2023-01-16T07:51:31;98463.16;;;4.53;100.00
54172;BME280;40076;52.354;4.970;2023-01-16T07:53:56;98456.69;;;4.54;100.00
54172;BME280;40076;52.354;4.970;2023-01-16T07:56:21;98451.78;;;4.56;100.00
54172;BME280;40076;52.354;4.970;2023-01-16T07:58:47;98446.88;;;4.58;100.00
54172;BME280;40076;52.354;4.970;2023-01-16T08:01:14;98444.09;;;4.54;100.00
54172;BME280;40076;52.354;4.970;2023-01-16T08:03:39;98439.88;;;4.53;100.00
54172;BME280;40076;52.354;4.970;2023-01-16T08:06:05;98429.16;;;4.53;100.00
54172;BME280;40076;52.354;4.970;2023-01-16T08:08:31;98425.72;;;4.53;100.00
54172;BME280;40076;52.354;4.970;2023-01-16T08:10:58;98419.13;;;4.50;100.00
54172;BME280;40076;52.354;4.970;2023-01-16T08:13:25;98411.09;;;4.50;100.00
54172;BME280;40076;52.354;4.970;2023-01-16T08:15:51;98405.34;;;4.48;100.00
54172;BME280;40076;52.354;4.970;2023-01-16T08:18:17;98395.06;;;4.50;100.00
54172;BME280;40076;52.354;4.970;2023-01-16T08:20:44;98386.50;;;4.45;100.00
54172;BME280;40076;52.354;4.970;2023-01-16T08:23:10;98366.22;;;4.44;100.00
54172;BME280;40076;52.354;4.970;2023-01-16T08:25:35;98362.44;;;4.45;100.00
54172;BME280;40076;52.354;4.970;2023-01-16T08:28:00;98354.75;;;4.43;100.00
54172;BME280;40076;52.354;4.970;2023-01-16T08:30:26;98340.19;;;4.41;100.00
54172;BME280;40076;52.354;4.970;2023-01-16T08:32:59;98340.97;;;4.41;100.00
54172;BME280;40076;52.354;4.970;2023-01-16T08:35:25;98328.38;;;4.42;100.00
54172;BME280;40076;52.354;4.970;2023-01-16T08:37:51;98324.47;;;4.39;100.00
54172;BME280;40076;52.354;4.970;2023-01-16T08:40:17;98311.88;;;4.40;100.00
54172;BME280;40076;52.354;4.970;2023-01-16T08:42:42;98312.88;;;4.35;100.00
54172;BME280;40076;52.354;4.970;2023-01-16T08:45:26;98302.97;;;4.36;100.00
54172;BME280;40076;52.354;4.970;2023-01-16T08:48:11;98301.00;;;4.33;100.00
54172;BME280;40076;52.354;4.970;2023-01-16T08:50:56;98289.06;;;4.30;100.00
54172;BME280;40076;52.354;4.970;2023-01-16T08:53:40;98285.28;;;4.31;100.00
54172;BME280;40076;52.354;4.970;2023-01-16T08:56:06;98279.47;;;4.29;100.00
54172;BME280;40076;52.354;4.970;2023-01-16T08:58:31;98278.81;;;4.32;100.00
54172;BME280;40076;52.354;4.970;2023-01-16T09:00:57;98260.88;;;4.33;100.00
54172;BME280;40076;52.354;4.970;2023-01-16T09:03:22;98262.34;;;4.30;100.00
54172;BME280;40076;52.354;4.970;2023-01-16T09:05:47;98247.53;;;4.33;100.00
54172;BME280;40076;52.354;4.970;2023-01-16T09:08:12;98246.41;;;4.34;100.00
54172;BME280;40076;52.354;4.970;2023-01-16T09:10:38;98233.47;;;4.36;100.00
54172;BME280;40076;52.354;4.970;2023-01-16T09:13:03;98233.38;;;4.32;100.00
54172;BME280;40076;52.354;4.970;2023-01-16T09:15:48;98244.84;;;4.33;100.00
54172;BME280;40076;52.354;4.970;2023-01-16T09:18:13;98235.00;;;4.37;100.00
54172;BME280;40076;52.354;4.970;2023-01-16T09:20:39;98237.34;;;4.38;100.00
54172;BME280;40076;52.354;4.970;2023-01-16T09:23:04;98225.53;;;4.39;100.00
54172;BME280;40076;52.354;4.970;2023-01-16T09:25:31;98229.34;;;4.38;100.00
54172;BME280;40076;52.354;4.970;2023-01-16T09:27:57;98220.66;;;4.41;100.00
54172;BME280;40076;52.354;4.970;2023-01-16T09:30:23;98208.38;;;4.40;100.00
54172;BME280;40076;52.354;4.970;2023-01-16T09:32:49;98204.22;;;4.43;100.00
54172;BME280;40076;52.354;4.970;2023-01-16T09:35:14;98206.91;;;4.43;100.00
54172;BME280;40076;52.354;4.970;2023-01-16T09:37:42;98194.75;;;4.45;100.00
54172;BME280;40076;52.354;4.970;2023-01-16T09:40:19;98185.19;;;4.44;100.00
54172;BME280;40076;52.354;4.970;2023-01-16T09:45:58;98170.44;;;4.50;100.00
54172;BME280;40076;52.354;4.970;2023-01-16T09:48:30;98168.91;;;4.49;100.00
54172;BME280;40076;52.354;4.970;2023-01-16T09:51:01;98162.84;;;4.52;100.00
54172;BME280;40076;52.354;4.970;2023-01-16T09:56:27;98154.16;;;4.55;100.00
54172;BME280;40076;52.354;4.970;2023-01-16T09:59:20;98151.16;;;4.57;100.00
54172;BME280;40076;52.354;4.970;2023-01-16T10:01:55;98150.00;;;4.58;100.00
54172;BME280;40076;52.354;4.970;2023-01-16T10:04:24;98135.50;;;4.59;100.00
54172;BME280;40076;52.354;4.970;2023-01-16T10:07:05;98135.50;;;4.59;100.00
54172;BME280;40076;52.354;4.970;2023-01-16T10:09:58;98136.72;;;4.61;100.00
54172;BME280;40076;52.354;4.970;2023-01-16T10:12:36;98133.78;;;4.66;100.00
54172;BME280;40076;52.354;4.970;2023-01-16T10:15:11;98119.31;;;4.68;100.00
54172;BME280;40076;52.354;4.970;2023-01-16T10:28:57;98097.72;;;4.76;100.00
54172;BME280;40076;52.354;4.970;2023-01-16T10:31:29;98089.72;;;4.76;100.00
54172;BME280;40076;52.354;4.970;2023-01-16T10:34:05;98084.34;;;4.76;100.00
54172;BME280;40076;52.354;4.970;2023-01-16T10:36:37;98077.53;;;4.79;100.00
54172;BME280;40076;52.354;4.970;2023-01-16T10:39:04;98077.53;;;4.79;100.00
54172;BME280;40076;52.354;4.970;2023-01-16T10:41:35;98074.88;;;4.79;100.00
54172;BME280;40076;52.354;4.970;2023-01-16T10:44:34;98074.59;;;4.84;100.00
54172;BME280;40076;52.354;4.970;2023-01-16T10:47:25;98066.91;;;4.82;100.00
54172;BME280;40076;52.354;4.970;2023-01-16T10:50:10;98055.53;;;4.85;100.00
54172;BME280;40076;52.354;4.970;2023-01-16T10:52:36;98054.41;;;4.86;100.00
54172;BME280;40076;52.354;4.970;2023-01-16T10:55:03;98061.31;;;4.87;100.00
54172;BME280;40076;52.354;4.970;2023-01-16T10:57:29;98050.69;;;4.91;100.00
54172;BME280;40076;52.354;4.970;2023-01-16T10:59:59;98044.53;;;4.90;100.00
54172;BME280;40076;52.354;4.970;2023-01-16T11:02:30;98042.66;;;4.91;100.00
54172;BME280;40076;52.354;4.970;2023-01-16T11:04:56;98042.75;;;4.94;100.00
54172;BME280;40076;52.354;4.970;2023-01-16T11:07:22;98034.72;;;4.94;100.00
54172;BME280;40076;52.354;4.970;2023-01-16T11:09:51;98020.22;;;4.95;100.00
54172;BME280;40076;52.354;4.970;2023-01-16T11:12:27;98013.72;;;4.96;100.00
54172;BME280;40076;52.354;4.970;2023-01-16T11:15:15;98012.19;;;4.95;100.00
54172;BME280;40076;52.354;4.970;2023-01-16T11:18:00;98002.22;;;4.96;100.00
54172;BME280;40076;52.354;4.970;2023-01-16T11:20:44;97996.88;;;4.96;100.00
54172;BME280;40076;52.354;4.970;2023-01-16T11:23:19;97994.59;;;4.94;100.00
54172;BME280;40076;52.354;4.970;2023-01-16T11:25:46;97981.25;;;4.98;100.00
54172;BME280;40076;52.354;4.970;2023-01-16T11:28:21;97984.28;;;4.96;100.00
54172;BME280;40076;52.354;4.970;2023-01-16T11:30:48;97975.13;;;4.97;100.00
54172;BME280;40076;52.354;4.970;2023-01-16T11:33:19;97976.69;;;4.98;100.00
54172;BME280;40076;52.354;4.970;2023-01-16T11:35:54;97972.88;;;4.99;100.00
54172;BME280;40076;52.354;4.970;2023-01-16T11:38:23;97966.06;;;5.02;100.00
54172;BME280;40076;52.354;4.970;2023-01-16T11:40:50;97964.94;;;5.03;100.00
54172;BME280;40076;52.354;4.970;2023-01-16T11:43:19;97961.13;;;5.04;100.00
54172;BME280;40076;52.354;4.970;2023-01-16T11:46:51;97947.03;;;5.07;100.00
54172;BME280;40076;52.354;4.970;2023-01-16T11:48:54;97948.59;;;5.08;100.00
54172;BME280;40076;52.354;4.970;2023-01-16T11:51:24;97950.50;;;5.08;100.00
54172;BME280;40076;52.354;4.970;2023-01-16T11:53:52;97942.91;;;5.10;100.00
54172;BME280;40076;52.354;4.970;2023-01-16T11:56:36;97941.00;;;5.10;100.00
54172;BME280;40076;52.354;4.970;2023-01-16T12:04:34;97931.81;;;5.11;100.00
54172;BME280;40076;52.354;4.970;2023-01-16T12:07:14;97919.63;;;5.14;100.00
54172;BME280;40076;52.354;4.970;2023-01-16T12:09:53;97916.63;;;5.15;100.00
54172;BME280;40076;52.354;4.970;2023-01-16T12:12:33;97908.59;;;5.15;100.00
54172;BME280;40076;52.354;4.970;2023-01-16T12:18:15;97899.09;;;5.18;100.00
54172;BME280;40076;52.354;4.970;2023-01-16T12:20:52;97891.47;;;5.20;100.00
54172;BME280;40076;52.354;4.970;2023-01-16T12:26:10;97888.00;;;5.19;100.00
54172;BME280;40076;52.354;4.970;2023-01-16T12:29:12;97883.84;;;5.22;100.00
54172;BME280;40076;52.354;4.970;2023-01-16T12:34:45;97867.09;;;5.25;100.00
54172;BME280;40076;52.354;4.970;2023-01-16T12:46:12;97861.78;;;5.28;100.00
54172;BME280;40076;52.354;4.970;2023-01-16T12:56:59;97842.78;;;5.33;100.00
54172;BME280;40076;52.354;4.970;2023-01-16T12:59:34;97838.94;;;5.34;100.00
54172;BME280;40076;52.354;4.970;2023-01-16T13:05:02;97830.56;;;5.36;100.00
54172;BME280;40076;52.354;4.970;2023-01-16T13:07:33;97831.34;;;5.36;100.00
54172;BME280;40076;52.354;4.970;2023-01-16T13:10:18;97829.06;;;5.38;100.00
54172;BME280;40076;52.354;4.970;2023-01-16T13:13:18;97829.84;;;5.39;100.00
54172;BME280;40076;52.354;4.970;2023-01-16T13:18:23;97822.63;;;5.43;100.00
54172;BME280;40076;52.354;4.970;2023-01-16T13:20:56;97808.13;;;5.44;100.00
54172;BME280;40076;52.354;4.970;2023-01-16T13:23:36;97814.69;;;5.47;100.00
54172;BME280;40076;52.354;4.970;2023-01-16T13:26:08;97813.56;;;5.48;100.00
54172;BME280;40076;52.354;4.970;2023-01-16T13:31:34;97803.22;;;5.50;100.00
54172;BME280;40076;52.354;4.970;2023-01-16T13:34:21;97807.09;;;5.52;100.00
54172;BME280;40076;52.354;4.970;2023-01-16T13:37:07;97802.53;;;5.53;100.00
54172;BME280;40076;52.354;4.970;2023-01-16T13:42:25;97804.09;;;5.54;100.00
54172;BME280;40076;52.354;4.970;2023-01-16T13:44:58;97801.81;;;5.56;100.00
54172;BME280;40076;52.354;4.970;2023-01-16T13:47:44;97796.88;;;5.58;100.00
54172;BME280;40076;52.354;4.970;2023-01-16T13:50:29;97798.75;;;5.57;100.00
54172;BME280;40076;52.354;4.970;2023-01-16T13:53:04;97799.97;;;5.60;100.00
54172;BME280;40076;52.354;4.970;2023-01-16T13:55:34;97788.91;;;5.61;100.00
54172;BME280;40076;52.354;4.970;2023-01-16T14:00:39;97790.44;;;5.62;100.00
54172;BME280;40076;52.354;4.970;2023-01-16T14:03:25;97786.63;;;5.63;100.00
54172;BME280;40076;52.354;4.970;2023-01-16T14:06:15;97780.50;;;5.63;100.00
54172;BME280;40076;52.354;4.970;2023-01-16T14:08:47;97786.63;;;5.63;100.00
54172;BME280;40076;52.354;4.970;2023-01-16T14:11:37;97777.41;;;5.61;100.00
54172;BME280;40076;52.354;4.970;2023-01-16T14:16:43;97777.47;;;5.64;100.00
54172;BME280;40076;52.354;4.970;2023-01-16T14:19:21;97779.78;;;5.66;100.00
54172;BME280;40076;52.354;4.970;2023-01-16T14:21:47;97776.72;;;5.67;100.00
54172;BME280;40076;52.354;4.970;2023-01-16T14:24:40;97774.06;;;5.67;100.00
54172;BME280;40076;52.354;4.970;2023-01-16T14:27:11;97771.38;;;5.67;100.00
54172;BME280;40076;52.354;4.970;2023-01-16T14:29:48;97770.25;;;5.68;100.00
54172;BME280;40076;52.354;4.970;2023-01-16T14:32:22;97771.44;;;5.71;100.00
54172;BME280;40076;52.354;4.970;2023-01-16T14:34:52;97768.38;;;5.72;100.00
54172;BME280;40076;52.354;4.970;2023-01-16T14:40:20;97773.03;;;5.75;100.00
54172;BME280;40076;52.354;4.970;2023-01-16T14:42:49;97768.44;;;5.76;100.00
54172;BME280;40076;52.354;4.970;2023-01-16T14:45:35;97764.63;;;5.77;100.00
54172;BME280;40076;52.354;4.970;2023-01-16T14:56:53;97743.25;;;5.80;100.00
54172;BME280;40076;52.354;4.970;2023-01-16T14:59:27;97744.78;;;5.81;100.00
54172;BME280;40076;52.354;4.970;2023-01-16T15:02:00;97744.44;;;5.83;100.00